Henning, Minnesota
Current Conditions -  °F | °C
As of 10:35 PM on Saturday 22 Nov 2014 (Local Time) from KADC Reporting Station
Haze Haze  
Wind Chill: 24°   Ceiling: 200
Heat Index: 32°   Visibility: 1mi
Dew Point: 30°   Wind: 9mph
Humidity: 93%   Direction: 140°SE
Pressure: 29.42"   Gusts: NA
Location:  46.32°N, 95.45°W
Report Text: KADC 230435Z AUTO 14008KT 1SM BR OVC002 00/M01 A2942 RMK AO2
Loading
Personal Weather Stations






























Interactive Weather Map New forecast layout! Learn more

10-Day Weather Forecast

Advertisements
Track Severe Weather on mobile